sensor_id;sensor_type;location;lat;lon;timestamp;P1;durP1;ratioP1;P2;durP2;ratioP2
18072;SDS011;9161;47.348;9.648;2024-02-28T00:02:11;28.77;;;12.37;;
18072;SDS011;9161;47.348;9.648;2024-02-28T00:07:15;28.23;;;11.60;;
18072;SDS011;9161;47.348;9.648;2024-02-28T00:12:17;23.60;;;10.90;;
18072;SDS011;9161;47.348;9.648;2024-02-28T00:17:20;27.20;;;12.00;;
18072;SDS011;9161;47.348;9.648;2024-02-28T00:22:24;25.80;;;11.33;;
18072;SDS011;9161;47.348;9.648;2024-02-28T00:27:26;27.10;;;11.10;;
18072;SDS011;9161;47.348;9.648;2024-02-28T00:32:29;23.83;;;9.97;;
18072;SDS011;9161;47.348;9.648;2024-02-28T00:37:34;25.37;;;10.37;;
18072;SDS011;9161;47.348;9.648;2024-02-28T00:42:36;24.80;;;11.67;;
18072;SDS011;9161;47.348;9.648;2024-02-28T00:47:39;28.97;;;12.17;;
18072;SDS011;9161;47.348;9.648;2024-02-28T00:52:44;27.03;;;11.20;;
18072;SDS011;9161;47.348;9.648;2024-02-28T00:57:46;25.10;;;11.03;;
18072;SDS011;9161;47.348;9.648;2024-02-28T01:02:48;27.77;;;11.40;;
18072;SDS011;9161;47.348;9.648;2024-02-28T01:07:51;29.57;;;11.67;;
18072;SDS011;9161;47.348;9.648;2024-02-28T01:12:54;27.47;;;10.43;;
18072;SDS011;9161;47.348;9.648;2024-02-28T01:17:56;29.87;;;11.63;;
18072;SDS011;9161;47.348;9.648;2024-02-28T01:22:59;24.30;;;11.23;;
18072;SDS011;9161;47.348;9.648;2024-02-28T01:28:01;23.97;;;10.73;;
18072;SDS011;9161;47.348;9.648;2024-02-28T01:33:06;24.13;;;10.20;;
18072;SDS011;9161;47.348;9.648;2024-02-28T01:38:09;25.13;;;10.70;;
18072;SDS011;9161;47.348;9.648;2024-02-28T01:43:11;24.23;;;11.37;;
18072;SDS011;9161;47.348;9.648;2024-02-28T01:48:14;30.50;;;12.60;;
18072;SDS011;9161;47.348;9.648;2024-02-28T01:53:17;24.33;;;9.93;;
18072;SDS011;9161;47.348;9.648;2024-02-28T01:58:20;32.97;;;11.87;;
18072;SDS011;9161;47.348;9.648;2024-02-28T02:03:23;30.50;;;12.87;;
18072;SDS011;9161;47.348;9.648;2024-02-28T02:08:29;29.20;;;10.73;;
18072;SDS011;9161;47.348;9.648;2024-02-28T02:13:32;26.53;;;10.53;;
18072;SDS011;9161;47.348;9.648;2024-02-28T02:18:35;30.87;;;11.97;;
18072;SDS011;9161;47.348;9.648;2024-02-28T02:23:39;28.63;;;12.10;;
18072;SDS011;9161;47.348;9.648;2024-02-28T02:28:41;24.57;;;10.43;;
18072;SDS011;9161;47.348;9.648;2024-02-28T02:33:43;28.87;;;10.37;;
18072;SDS011;9161;47.348;9.648;2024-02-28T02:38:47;26.10;;;11.13;;
18072;SDS011;9161;47.348;9.648;2024-02-28T02:43:49;25.53;;;10.97;;
18072;SDS011;9161;47.348;9.648;2024-02-28T02:48:51;25.73;;;11.03;;
18072;SDS011;9161;47.348;9.648;2024-02-28T02:53:55;27.33;;;11.23;;
18072;SDS011;9161;47.348;9.648;2024-02-28T02:58:57;35.13;;;11.97;;
18072;SDS011;9161;47.348;9.648;2024-02-28T03:03:59;30.07;;;11.23;;
18072;SDS011;9161;47.348;9.648;2024-02-28T03:09:03;24.47;;;10.17;;
18072;SDS011;9161;47.348;9.648;2024-02-28T03:14:06;23.80;;;10.17;;
18072;SDS011;9161;47.348;9.648;2024-02-28T03:19:09;22.97;;;8.97;;
18072;SDS011;9161;47.348;9.648;2024-02-28T03:24:13;21.47;;;10.17;;
18072;SDS011;9161;47.348;9.648;2024-02-28T03:29:15;22.33;;;9.47;;
18072;SDS011;9161;47.348;9.648;2024-02-28T03:34:17;25.97;;;10.73;;
18072;SDS011;9161;47.348;9.648;2024-02-28T03:39:21;25.70;;;10.60;;
18072;SDS011;9161;47.348;9.648;2024-02-28T03:44:23;22.70;;;10.77;;
18072;SDS011;9161;47.348;9.648;2024-02-28T03:49:26;22.90;;;10.07;;
18072;SDS011;9161;47.348;9.648;2024-02-28T03:54:29;28.90;;;11.47;;
18072;SDS011;9161;47.348;9.648;2024-02-28T03:59:32;27.00;;;10.10;;
18072;SDS011;9161;47.348;9.648;2024-02-28T04:04:35;27.13;;;11.53;;
18072;SDS011;9161;47.348;9.648;2024-02-28T04:09:39;32.10;;;11.90;;
18072;SDS011;9161;47.348;9.648;2024-02-28T04:14:42;24.77;;;10.63;;
18072;SDS011;9161;47.348;9.648;2024-02-28T04:19:44;26.17;;;10.40;;
18072;SDS011;9161;47.348;9.648;2024-02-28T04:24:47;20.37;;;9.10;;
18072;SDS011;9161;47.348;9.648;2024-02-28T04:29:50;20.43;;;9.77;;
18072;SDS011;9161;47.348;9.648;2024-02-28T04:34:52;23.63;;;9.67;;
18072;SDS011;9161;47.348;9.648;2024-02-28T04:39:56;23.97;;;10.50;;
18072;SDS011;9161;47.348;9.648;2024-02-28T04:44:58;22.20;;;10.10;;
18072;SDS011;9161;47.348;9.648;2024-02-28T04:50:00;26.37;;;10.93;;
18072;SDS011;9161;47.348;9.648;2024-02-28T04:55:06;26.07;;;11.17;;
18072;SDS011;9161;47.348;9.648;2024-02-28T05:00:10;26.50;;;11.27;;
18072;SDS011;9161;47.348;9.648;2024-02-28T05:05:12;25.40;;;11.40;;
18072;SDS011;9161;47.348;9.648;2024-02-28T05:10:16;27.43;;;11.10;;
18072;SDS011;9161;47.348;9.648;2024-02-28T05:15:19;23.03;;;10.37;;
18072;SDS011;9161;47.348;9.648;2024-02-28T05:20:20;27.90;;;11.17;;
18072;SDS011;9161;47.348;9.648;2024-02-28T05:25:24;23.40;;;11.13;;
18072;SDS011;9161;47.348;9.648;2024-02-28T05:30:26;33.03;;;11.97;;
18072;SDS011;9161;47.348;9.648;2024-02-28T05:35:28;24.10;;;10.03;;
18072;SDS011;9161;47.348;9.648;2024-02-28T05:40:32;24.83;;;10.30;;
18072;SDS011;9161;47.348;9.648;2024-02-28T05:45:36;24.67;;;10.20;;
18072;SDS011;9161;47.348;9.648;2024-02-28T05:50:40;24.40;;;11.33;;
18072;SDS011;9161;47.348;9.648;2024-02-28T05:55:44;24.07;;;11.00;;
18072;SDS011;9161;47.348;9.648;2024-02-28T06:00:47;26.03;;;10.87;;
18072;SDS011;9161;47.348;9.648;2024-02-28T06:05:49;24.77;;;10.07;;
18072;SDS011;9161;47.348;9.648;2024-02-28T06:10:53;24.13;;;10.73;;
18072;SDS011;9161;47.348;9.648;2024-02-28T06:15:55;31.53;;;11.40;;
18072;SDS011;9161;47.348;9.648;2024-02-28T06:20:58;24.93;;;10.30;;
18072;SDS011;9161;47.348;9.648;2024-02-28T06:26:03;23.73;;;10.77;;
18072;SDS011;9161;47.348;9.648;2024-02-28T06:31:11;31.47;;;12.00;;
18072;SDS011;9161;47.348;9.648;2024-02-28T06:36:14;29.67;;;11.33;;
18072;SDS011;9161;47.348;9.648;2024-02-28T06:41:17;28.87;;;11.63;;
18072;SDS011;9161;47.348;9.648;2024-02-28T06:46:19;25.47;;;11.07;;
18072;SDS011;9161;47.348;9.648;2024-02-28T06:51:22;34.07;;;13.33;;
18072;SDS011;9161;47.348;9.648;2024-02-28T06:56:25;30.03;;;12.63;;
18072;SDS011;9161;47.348;9.648;2024-02-28T07:01:28;25.87;;;11.23;;
18072;SDS011;9161;47.348;9.648;2024-02-28T07:06:30;29.37;;;11.60;;
18072;SDS011;9161;47.348;9.648;2024-02-28T07:11:38;35.57;;;13.13;;
18072;SDS011;9161;47.348;9.648;2024-02-28T07:16:41;31.20;;;12.70;;
18072;SDS011;9161;47.348;9.648;2024-02-28T07:21:44;28.40;;;11.97;;
18072;SDS011;9161;47.348;9.648;2024-02-28T07:26:48;33.80;;;12.03;;
18072;SDS011;9161;47.348;9.648;2024-02-28T07:31:51;30.90;;;11.87;;
18072;SDS011;9161;47.348;9.648;2024-02-28T07:36:52;29.23;;;10.70;;
18072;SDS011;9161;47.348;9.648;2024-02-28T07:41:56;33.93;;;11.67;;
18072;SDS011;9161;47.348;9.648;2024-02-28T07:47:00;33.63;;;12.27;;
18072;SDS011;9161;47.348;9.648;2024-02-28T07:52:02;26.13;;;11.47;;
18072;SDS011;9161;47.348;9.648;2024-02-28T07:57:06;32.53;;;12.47;;
18072;SDS011;9161;47.348;9.648;2024-02-28T08:02:09;29.77;;;11.17;;
18072;SDS011;9161;47.348;9.648;2024-02-28T08:07:12;31.87;;;11.60;;
18072;SDS011;9161;47.348;9.648;2024-02-28T08:12:16;38.40;;;12.60;;
18072;SDS011;9161;47.348;9.648;2024-02-28T08:17:18;32.73;;;12.37;;
18072;SDS011;9161;47.348;9.648;2024-02-28T08:22:20;32.50;;;12.10;;
18072;SDS011;9161;47.348;9.648;2024-02-28T08:27:26;35.67;;;13.20;;
18072;SDS011;9161;47.348;9.648;2024-02-28T08:32:32;32.40;;;12.83;;
18072;SDS011;9161;47.348;9.648;2024-02-28T08:37:34;34.70;;;11.93;;
18072;SDS011;9161;47.348;9.648;2024-02-28T08:42:39;30.23;;;11.33;;
18072;SDS011;9161;47.348;9.648;2024-02-28T08:47:42;42.43;;;13.67;;
18072;SDS011;9161;47.348;9.648;2024-02-28T08:52:44;32.83;;;12.30;;
18072;SDS011;9161;47.348;9.648;2024-02-28T08:57:48;29.23;;;11.77;;
18072;SDS011;9161;47.348;9.648;2024-02-28T09:02:50;32.97;;;12.10;;
18072;SDS011;9161;47.348;9.648;2024-02-28T09:07:53;29.93;;;11.37;;
18072;SDS011;9161;47.348;9.648;2024-02-28T09:12:56;36.40;;;13.70;;
18072;SDS011;9161;47.348;9.648;2024-02-28T09:17:59;38.57;;;12.53;;
18072;SDS011;9161;47.348;9.648;2024-02-28T09:23:02;34.43;;;12.97;;
18072;SDS011;9161;47.348;9.648;2024-02-28T09:28:05;37.13;;;13.77;;
18072;SDS011;9161;47.348;9.648;2024-02-28T09:33:09;39.10;;;13.70;;
18072;SDS011;9161;47.348;9.648;2024-02-28T09:38:12;34.83;;;12.87;;
18072;SDS011;9161;47.348;9.648;2024-02-28T09:43:18;37.27;;;12.97;;
18072;SDS011;9161;47.348;9.648;2024-02-28T09:48:27;40.97;;;13.83;;
18072;SDS011;9161;47.348;9.648;2024-02-28T09:53:30;34.33;;;12.37;;
18072;SDS011;9161;47.348;9.648;2024-02-28T09:58:34;34.30;;;12.43;;
18072;SDS011;9161;47.348;9.648;2024-02-28T10:03:39;33.10;;;12.53;;
18072;SDS011;9161;47.348;9.648;2024-02-28T10:08:43;38.67;;;13.37;;
18072;SDS011;9161;47.348;9.648;2024-02-28T10:13:49;33.17;;;12.33;;
18072;SDS011;9161;47.348;9.648;2024-02-28T10:18:51;33.70;;;12.03;;
18072;SDS011;9161;47.348;9.648;2024-02-28T10:23:54;30.83;;;11.30;;
18072;SDS011;9161;47.348;9.648;2024-02-28T10:29:06;34.07;;;12.57;;
18072;SDS011;9161;47.348;9.648;2024-02-28T10:34:11;33.10;;;12.50;;
18072;SDS011;9161;47.348;9.648;2024-02-28T10:39:14;33.20;;;11.67;;
18072;SDS011;9161;47.348;9.648;2024-02-28T10:44:17;34.13;;;12.00;;
18072;SDS011;9161;47.348;9.648;2024-02-28T10:49:21;31.73;;;12.43;;
18072;SDS011;9161;47.348;9.648;2024-02-28T10:54:24;35.20;;;12.37;;
18072;SDS011;9161;47.348;9.648;2024-02-28T10:59:31;34.53;;;11.80;;
18072;SDS011;9161;47.348;9.648;2024-02-28T11:04:36;30.60;;;12.80;;
18072;SDS011;9161;47.348;9.648;2024-02-28T11:09:40;28.40;;;11.27;;
18072;SDS011;9161;47.348;9.648;2024-02-28T11:14:44;33.00;;;11.73;;
18072;SDS011;9161;47.348;9.648;2024-02-28T11:19:56;26.50;;;11.33;;
18072;SDS011;9161;47.348;9.648;2024-02-28T11:24:59;35.73;;;12.50;;
18072;SDS011;9161;47.348;9.648;2024-02-28T11:30:03;29.63;;;11.83;;
18072;SDS011;9161;47.348;9.648;2024-02-28T11:35:06;33.87;;;13.30;;
18072;SDS011;9161;47.348;9.648;2024-02-28T11:40:09;32.00;;;11.93;;
18072;SDS011;9161;47.348;9.648;2024-02-28T11:45:14;32.17;;;11.87;;
18072;SDS011;9161;47.348;9.648;2024-02-28T11:50:18;29.13;;;11.57;;
18072;SDS011;9161;47.348;9.648;2024-02-28T11:55:20;29.50;;;11.27;;
18072;SDS011;9161;47.348;9.648;2024-02-28T12:00:23;28.43;;;11.60;;
18072;SDS011;9161;47.348;9.648;2024-02-28T12:05:25;30.83;;;10.67;;
18072;SDS011;9161;47.348;9.648;2024-02-28T12:10:28;30.67;;;11.53;;
18072;SDS011;9161;47.348;9.648;2024-02-28T12:15:33;24.77;;;10.67;;
18072;SDS011;9161;47.348;9.648;2024-02-28T12:20:35;36.37;;;11.57;;
18072;SDS011;9161;47.348;9.648;2024-02-28T12:25:38;26.17;;;11.07;;
18072;SDS011;9161;47.348;9.648;2024-02-28T12:30:41;30.97;;;11.30;;
18072;SDS011;9161;47.348;9.648;2024-02-28T12:35:44;32.57;;;12.23;;
18072;SDS011;9161;47.348;9.648;2024-02-28T12:40:46;37.57;;;13.17;;
18072;SDS011;9161;47.348;9.648;2024-02-28T12:45:50;32.47;;;11.60;;
18072;SDS011;9161;47.348;9.648;2024-02-28T12:50:52;32.63;;;11.10;;
18072;SDS011;9161;47.348;9.648;2024-02-28T12:55:54;28.87;;;11.07;;
18072;SDS011;9161;47.348;9.648;2024-02-28T13:00:57;29.67;;;11.23;;
18072;SDS011;9161;47.348;9.648;2024-02-28T13:06:00;28.70;;;11.10;;
18072;SDS011;9161;47.348;9.648;2024-02-28T13:11:02;26.03;;;11.30;;
18072;SDS011;9161;47.348;9.648;2024-02-28T13:16:06;32.97;;;12.63;;
18072;SDS011;9161;47.348;9.648;2024-02-28T13:21:08;30.53;;;10.77;;
18072;SDS011;9161;47.348;9.648;2024-02-28T13:26:11;26.33;;;10.70;;
18072;SDS011;9161;47.348;9.648;2024-02-28T13:31:20;30.27;;;11.30;;
18072;SDS011;9161;47.348;9.648;2024-02-28T13:36:23;33.07;;;11.67;;
18072;SDS011;9161;47.348;9.648;2024-02-28T13:41:25;29.20;;;11.60;;
18072;SDS011;9161;47.348;9.648;2024-02-28T13:46:28;26.93;;;11.37;;
18072;SDS011;9161;47.348;9.648;2024-02-28T13:51:32;29.13;;;11.97;;
18072;SDS011;9161;47.348;9.648;2024-02-28T13:56:34;34.40;;;11.70;;
18072;SDS011;9161;47.348;9.648;2024-02-28T14:01:39;35.00;;;11.50;;
18072;SDS011;9161;47.348;9.648;2024-02-28T14:06:41;32.43;;;12.27;;
18072;SDS011;9161;47.348;9.648;2024-02-28T14:11:44;32.53;;;11.23;;
18072;SDS011;9161;47.348;9.648;2024-02-28T14:16:48;36.40;;;12.93;;
18072;SDS011;9161;47.348;9.648;2024-02-28T14:21:50;38.40;;;12.00;;
18072;SDS011;9161;47.348;9.648;2024-02-28T14:26:52;35.87;;;11.40;;
18072;SDS011;9161;47.348;9.648;2024-02-28T14:31:56;35.63;;;12.13;;
18072;SDS011;9161;47.348;9.648;2024-02-28T14:36:58;37.27;;;12.80;;
18072;SDS011;9161;47.348;9.648;2024-02-28T14:42:01;36.60;;;12.63;;
18072;SDS011;9161;47.348;9.648;2024-02-28T14:47:04;34.57;;;13.33;;
18072;SDS011;9161;47.348;9.648;2024-02-28T14:52:07;34.70;;;13.33;;
18072;SDS011;9161;47.348;9.648;2024-02-28T14:57:10;32.17;;;13.07;;
18072;SDS011;9161;47.348;9.648;2024-02-28T15:02:15;31.73;;;12.13;;
18072;SDS011;9161;47.348;9.648;2024-02-28T15:07:17;31.00;;;12.40;;
18072;SDS011;9161;47.348;9.648;2024-02-28T15:12:20;34.00;;;11.77;;
18072;SDS011;9161;47.348;9.648;2024-02-28T15:17:24;35.17;;;13.57;;
18072;SDS011;9161;47.348;9.648;2024-02-28T15:22:26;40.97;;;13.73;;
18072;SDS011;9161;47.348;9.648;2024-02-28T15:27:28;34.70;;;12.57;;
18072;SDS011;9161;47.348;9.648;2024-02-28T15:32:35;38.70;;;12.77;;
18072;SDS011;9161;47.348;9.648;2024-02-28T15:37:40;33.03;;;11.90;;
18072;SDS011;9161;47.348;9.648;2024-02-28T15:42:42;44.17;;;14.27;;
18072;SDS011;9161;47.348;9.648;2024-02-28T15:47:47;31.90;;;11.67;;
18072;SDS011;9161;47.348;9.648;2024-02-28T15:52:51;37.53;;;13.03;;
18072;SDS011;9161;47.348;9.648;2024-02-28T15:57:54;37.80;;;13.00;;
18072;SDS011;9161;47.348;9.648;2024-02-28T16:02:58;38.63;;;13.13;;
18072;SDS011;9161;47.348;9.648;2024-02-28T16:08:00;42.10;;;13.40;;
18072;SDS011;9161;47.348;9.648;2024-02-28T16:13:04;30.47;;;12.67;;
18072;SDS011;9161;47.348;9.648;2024-02-28T16:18:09;38.07;;;13.60;;
18072;SDS011;9161;47.348;9.648;2024-02-28T16:23:14;40.10;;;13.47;;
18072;SDS011;9161;47.348;9.648;2024-02-28T16:28:16;34.83;;;12.37;;
18072;SDS011;9161;47.348;9.648;2024-02-28T16:33:19;39.53;;;12.43;;
18072;SDS011;9161;47.348;9.648;2024-02-28T16:38:23;38.27;;;13.03;;
18072;SDS011;9161;47.348;9.648;2024-02-28T16:43:26;43.70;;;15.50;;
18072;SDS011;9161;47.348;9.648;2024-02-28T16:48:30;43.17;;;14.73;;
18072;SDS011;9161;47.348;9.648;2024-02-28T16:53:32;37.47;;;13.17;;
18072;SDS011;9161;47.348;9.648;2024-02-28T16:58:35;39.80;;;13.27;;
18072;SDS011;9161;47.348;9.648;2024-02-28T17:03:42;39.13;;;13.63;;
18072;SDS011;9161;47.348;9.648;2024-02-28T17:08:49;35.73;;;12.70;;
18072;SDS011;9161;47.348;9.648;2024-02-28T17:13:51;41.53;;;12.40;;
18072;SDS011;9161;47.348;9.648;2024-02-28T17:18:55;35.07;;;12.30;;
18072;SDS011;9161;47.348;9.648;2024-02-28T17:23:58;38.57;;;13.87;;
18072;SDS011;9161;47.348;9.648;2024-02-28T17:29:00;45.30;;;14.20;;
18072;SDS011;9161;47.348;9.648;2024-02-28T17:34:04;30.40;;;12.07;;
18072;SDS011;9161;47.348;9.648;2024-02-28T17:39:06;35.57;;;13.83;;
18072;SDS011;9161;47.348;9.648;2024-02-28T17:44:10;42.17;;;13.17;;
18072;SDS011;9161;47.348;9.648;2024-02-28T17:49:13;41.63;;;12.63;;
18072;SDS011;9161;47.348;9.648;2024-02-28T17:54:16;41.20;;;12.83;;
18072;SDS011;9161;47.348;9.648;2024-02-28T17:59:18;40.83;;;13.97;;
18072;SDS011;9161;47.348;9.648;2024-02-28T18:04:23;38.03;;;13.33;;
18072;SDS011;9161;47.348;9.648;2024-02-28T18:09:26;38.43;;;13.00;;
18072;SDS011;9161;47.348;9.648;2024-02-28T18:14:28;34.50;;;12.77;;
18072;SDS011;9161;47.348;9.648;2024-02-28T18:19:35;39.17;;;12.70;;
18072;SDS011;9161;47.348;9.648;2024-02-28T18:24:40;40.07;;;12.77;;
18072;SDS011;9161;47.348;9.648;2024-02-28T18:29:42;36.63;;;12.10;;
18072;SDS011;9161;47.348;9.648;2024-02-28T18:34:45;36.40;;;12.37;;
18072;SDS011;9161;47.348;9.648;2024-02-28T18:39:52;43.40;;;13.13;;
18072;SDS011;9161;47.348;9.648;2024-02-28T18:44:54;42.03;;;14.13;;
18072;SDS011;9161;47.348;9.648;2024-02-28T18:49:59;66.43;;;21.97;;
18072;SDS011;9161;47.348;9.648;2024-02-28T18:55:02;46.83;;;14.53;;
18072;SDS011;9161;47.348;9.648;2024-02-28T19:00:05;36.67;;;12.80;;
18072;SDS011;9161;47.348;9.648;2024-02-28T19:05:17;34.73;;;12.13;;
18072;SDS011;9161;47.348;9.648;2024-02-28T19:10:21;44.20;;;13.70;;
18072;SDS011;9161;47.348;9.648;2024-02-28T19:15:23;45.40;;;15.67;;
18072;SDS011;9161;47.348;9.648;2024-02-28T19:20:27;39.70;;;13.00;;
18072;SDS011;9161;47.348;9.648;2024-02-28T19:25:29;39.40;;;13.53;;
18072;SDS011;9161;47.348;9.648;2024-02-28T19:30:32;36.50;;;13.93;;
18072;SDS011;9161;47.348;9.648;2024-02-28T19:35:36;43.53;;;13.87;;
18072;SDS011;9161;47.348;9.648;2024-02-28T19:40:38;41.93;;;14.67;;
18072;SDS011;9161;47.348;9.648;2024-02-28T19:45:40;48.03;;;14.63;;
18072;SDS011;9161;47.348;9.648;2024-02-28T19:50:44;49.77;;;15.57;;
18072;SDS011;9161;47.348;9.648;2024-02-28T19:55:46;44.77;;;14.93;;
18072;SDS011;9161;47.348;9.648;2024-02-28T20:00:49;42.30;;;15.13;;
18072;SDS011;9161;47.348;9.648;2024-02-28T20:05:53;42.60;;;14.37;;
18072;SDS011;9161;47.348;9.648;2024-02-28T20:10:55;38.93;;;14.20;;
18072;SDS011;9161;47.348;9.648;2024-02-28T20:15:58;40.77;;;13.53;;
18072;SDS011;9161;47.348;9.648;2024-02-28T20:21:08;44.10;;;14.77;;
18072;SDS011;9161;47.348;9.648;2024-02-28T20:26:26;48.17;;;13.30;;
18072;SDS011;9161;47.348;9.648;2024-02-28T20:31:29;57.47;;;15.17;;
18072;SDS011;9161;47.348;9.648;2024-02-28T20:36:32;43.83;;;14.87;;
18072;SDS011;9161;47.348;9.648;2024-02-28T20:41:35;46.83;;;14.93;;
18072;SDS011;9161;47.348;9.648;2024-02-28T20:46:37;41.17;;;13.37;;
18072;SDS011;9161;47.348;9.648;2024-02-28T20:51:41;48.13;;;13.80;;
18072;SDS011;9161;47.348;9.648;2024-02-28T20:56:43;49.10;;;13.10;;
18072;SDS011;9161;47.348;9.648;2024-02-28T21:01:46;40.37;;;12.80;;
18072;SDS011;9161;47.348;9.648;2024-02-28T21:06:50;44.93;;;13.97;;
18072;SDS011;9161;47.348;9.648;2024-02-28T21:12:01;39.57;;;13.70;;
18072;SDS011;9161;47.348;9.648;2024-02-28T21:17:03;47.43;;;12.70;;
18072;SDS011;9161;47.348;9.648;2024-02-28T21:22:07;42.53;;;13.83;;
18072;SDS011;9161;47.348;9.648;2024-02-28T21:27:10;48.50;;;13.33;;
18072;SDS011;9161;47.348;9.648;2024-02-28T21:32:12;47.33;;;14.87;;
18072;SDS011;9161;47.348;9.648;2024-02-28T21:37:16;43.80;;;13.50;;
18072;SDS011;9161;47.348;9.648;2024-02-28T21:42:19;45.60;;;14.73;;
18072;SDS011;9161;47.348;9.648;2024-02-28T21:47:21;36.47;;;13.67;;
18072;SDS011;9161;47.348;9.648;2024-02-28T21:52:25;45.53;;;14.63;;
18072;SDS011;9161;47.348;9.648;2024-02-28T21:57:27;36.23;;;11.87;;
18072;SDS011;9161;47.348;9.648;2024-02-28T22:02:29;40.90;;;13.10;;
18072;SDS011;9161;47.348;9.648;2024-02-28T22:07:33;43.90;;;13.37;;
18072;SDS011;9161;47.348;9.648;2024-02-28T22:12:35;43.97;;;13.83;;
18072;SDS011;9161;47.348;9.648;2024-02-28T22:17:39;28.93;;;10.23;;
18072;SDS011;9161;47.348;9.648;2024-02-28T22:22:43;36.67;;;13.23;;
18072;SDS011;9161;47.348;9.648;2024-02-28T22:27:46;42.80;;;12.80;;
18072;SDS011;9161;47.348;9.648;2024-02-28T22:32:48;49.47;;;13.53;;
18072;SDS011;9161;47.348;9.648;2024-02-28T22:37:51;41.13;;;13.40;;
18072;SDS011;9161;47.348;9.648;2024-02-28T22:42:53;40.13;;;13.57;;
18072;SDS011;9161;47.348;9.648;2024-02-28T22:47:56;47.00;;;14.20;;
18072;SDS011;9161;47.348;9.648;2024-02-28T22:52:59;40.77;;;14.57;;
18072;SDS011;9161;47.348;9.648;2024-02-28T22:58:02;51.63;;;14.40;;
18072;SDS011;9161;47.348;9.648;2024-02-28T23:03:04;43.73;;;14.63;;
18072;SDS011;9161;47.348;9.648;2024-02-28T23:08:09;39.37;;;12.70;;
18072;SDS011;9161;47.348;9.648;2024-02-28T23:13:11;34.87;;;12.20;;
18072;SDS011;9161;47.348;9.648;2024-02-28T23:18:14;45.27;;;14.33;;
18072;SDS011;9161;47.348;9.648;2024-02-28T23:23:18;42.63;;;13.50;;
18072;SDS011;9161;47.348;9.648;2024-02-28T23:28:20;41.13;;;13.73;;
18072;SDS011;9161;47.348;9.648;2024-02-28T23:33:22;53.90;;;14.70;;
18072;SDS011;9161;47.348;9.648;2024-02-28T23:38:26;39.57;;;13.03;;
18072;SDS011;9161;47.348;9.648;2024-02-28T23:43:29;41.63;;;13.33;;
18072;SDS011;9161;47.348;9.648;2024-02-28T23:48:31;47.50;;;15.10;;
18072;SDS011;9161;47.348;9.648;2024-02-28T23:53:34;39.50;;;13.40;;
18072;SDS011;9161;47.348;9.648;2024-02-28T23:58:36;48.10;;;13.57;;
